Map

Track Data

SID SEASON NUMBER BASIN SUBBASIN NAME ISO_TIME NATURE LAT LON WMO_WIND WMO_PRES WMO_AGENCY TRACK_TYPE DIST2LAND LANDFALL IFLAG USA_AGENCY USA_ATCF_ID USA_LAT USA_LON USA_RECORD USA_STATUS USA_WIND USA_PRES USA_SSHS USA_R34_NE USA_R34_SE USA_R34_SW USA_R34_NW USA_R50_NE USA_R50_SE USA_R50_SW USA_R50_NW USA_R64_NE USA_R64_SE USA_R64_SW USA_R64_NW USA_POCI USA_ROCI USA_RMW USA_EYE TOKYO_LAT TOKYO_LON TOKYO_GRADE TOKYO_WIND TOKYO_PRES TOKYO_R50_DIR TOKYO_R50_LONG TOKYO_R50_SHORT TOKYO_R30_DIR TOKYO_R30_LONG TOKYO_R30_SHORT TOKYO_LAND CMA_LAT CMA_LON CMA_CAT CMA_WIND CMA_PRES HKO_LAT HKO_LON HKO_CAT HKO_WIND HKO_PRES NEWDELHI_LAT NEWDELHI_LON NEWDELHI_GRADE NEWDELHI_WIND NEWDELHI_PRES NEWDELHI_CI NEWDELHI_DP NEWDELHI_POCI REUNION_LAT REUNION_LON REUNION_TYPE REUNION_WIND REUNION_PRES REUNION_TNUM REUNION_CI REUNION_RMW REUNION_R34_NE REUNION_R34_SE REUNION_R34_SW REUNION_R34_NW REUNION_R50_NE REUNION_R50_SE REUNION_R50_SW REUNION_R50_NW REUNION_R64_NE REUNION_R64_SE REUNION_R64_SW REUNION_R64_NW BOM_LAT BOM_LON BOM_TYPE BOM_WIND BOM_PRES BOM_TNUM BOM_CI BOM_RMW BOM_R34_NE BOM_R34_SE BOM_R34_SW BOM_R34_NW BOM_R50_NE BOM_R50_SE BOM_R50_SW BOM_R50_NW BOM_R64_NE BOM_R64_SE BOM_R64_SW BOM_R64_NW BOM_ROCI BOM_POCI BOM_EYE BOM_POS_METHOD BOM_PRES_METHOD NADI_LAT NADI_LON NADI_CAT NADI_WIND NADI_PRES WELLINGTON_LAT WELLINGTON_LON WELLINGTON_WIND WELLINGTON_PRES DS824_LAT DS824_LON DS824_STAGE DS824_WIND DS824_PRES TD9636_LAT TD9636_LON TD9636_STAGE TD9636_WIND TD9636_PRES TD9635_LAT TD9635_LON TD9635_WIND TD9635_PRES TD9635_ROCI NEUMANN_LAT NEUMANN_LON NEUMANN_CLASS NEUMANN_WIND NEUMANN_PRES MLC_LAT MLC_LON MLC_CLASS MLC_WIND MLC_PRES USA_GUST BOM_GUST BOM_GUST_PER REUNION_GUST REUNION_GUST_PER USA_SEAHGT USA_SEARAD_NE USA_SEARAD_SE USA_SEARAD_SW USA_SEARAD_NW STORM_SPEED STORM_DIR
1948206N11129 1948 46 WP MM ROSE 1948-07-23 18:00:00 TS 11.3000 128.600 main 307 260 O________O_O__ jtwc_wp WP071948 11.3000 128.600 25 -1 11.3000 128.600 TC 25 11.3000 128.600 25 1000 60 18 315
1948206N11129 1948 46 WP MM ROSE 1948-07-23 21:00:00 TS 11.9353 127.953 main 260 198 P________P_P__ WP071948 11.9353 127.953 30 -1 11.9353 127.953 TC 30 11.9353 127.953 30 999 90 18 313
1948206N11129 1948 46 WP MM ROSE 1948-07-24 00:00:00 TS 12.5000 127.300 main 198 152 O________OOO__ jtwc_wp WP071948 12.5000 127.300 35 0 12.5000 127.300 TC 35 12.5000 127.300 2 35 12.5000 127.300 35 999 120 16 308
1948206N11129 1948 46 WP MM ROSE 1948-07-24 03:00:00 TS 12.9296 126.654 main 152 124 P________PPP__ WP071948 12.9449 126.642 42 0 12.9449 126.642 TC 42 12.8383 126.724 2 41 12.9449 126.642 42 997 120 15 302
1948206N11129 1948 46 WP MM ROSE 1948-07-24 06:00:00 TS 13.2762 126.026 main 124 114 O________OPO__ jtwc_wp WP071948 13.3000 126.000 50 0 13.3000 126.000 TC 50 13.1808 126.129 2 47 13.3000 126.000 50 995 120 14 299
1948206N11129 1948 46 WP MM ROSE 1948-07-24 09:00:00 TS 13.5886 125.434 main 108 43 P________PPP__ WP071948 13.6071 125.415 55 0 13.6071 125.415 TC 55 13.5330 125.493 2 53 13.6071 125.415 55 991 150 13 298
1948206N11129 1948 46 WP MM ROSE 1948-07-24 12:00:00 TS 13.9000 124.800 main 43 11 O________OOO__ jtwc_wp WP071948 13.9000 124.800 60 0 13.9000 124.800 TC 60 13.9000 124.800 2 60 13.9000 124.800 60 987 180 15 297
1948206N11129 1948 46 WP MM ROSE 1948-07-24 15:00:00 TS 14.2674 124.055 main 33 33 P________PPP__ WP071948 14.2651 124.058 65 1 14.2651 124.058 TC 65 14.2745 124.046 2 65 14.2651 124.058 65 984 180 16 296
1948206N11129 1948 46 WP MM ROSE 1948-07-24 18:00:00 TS 14.6000 123.300 main 62 55 O________OOO__ jtwc_wp WP071948 14.6000 123.300 70 1 14.6000 123.300 TC 70 14.6000 123.300 3 70 14.6000 123.300 70 981 180 15 292
1948206N11129 1948 46 WP MM ROSE 1948-07-24 21:00:00 TS 14.8232 122.641 main 67 46 P________PPP__ WP071948 14.8221 122.642 65 1 14.8221 122.642 TC 65 14.8265 122.638 3 65 14.8221 122.642 65 983 180 13 288
1948206N11129 1948 46 WP MM ROSE 1948-07-25 00:00:00 TS 15.0000 122.000 main 46 0 O________OOO__ jtwc_wp WP071948 15.0000 122.000 60 0 15.0000 122.000 TC 60 15.0000 122.000 2 60 15.0000 122.000 60 986 180 13 286
1948206N11129 1948 46 WP MM ROSE 1948-07-25 03:00:00 TS 15.1924 121.303 main 0 0 P________PPP__ WP071948 15.2074 121.307 55 0 15.2074 121.307 TC 55 15.1476 121.288 2 57 15.2074 121.307 55 988 210 14 285
1948206N11129 1948 46 WP MM ROSE 1948-07-25 06:00:00 TS 15.3715 120.589 main 0 0 O________OPO__ jtwc_wp WP071948 15.4000 120.600 50 0 15.4000 120.600 TC 50 15.2858 120.558 2 55 15.4000 120.600 50 990 240 14 283
1948206N11129 1948 46 WP MM ROSE 1948-07-25 09:00:00 TS 15.5040 119.870 main 10 10 P________PPP__ WP071948 15.5200 119.877 50 0 15.5200 119.877 TC 50 15.4560 119.849 2 52 15.5200 119.877 50 991 210 14 284
1948206N11129 1948 46 WP MM ROSE 1948-07-25 12:00:00 TS 15.7000 119.200 main 63 63 O________OOO__ jtwc_wp WP071948 15.7000 119.200 50 0 15.7000 119.200 TC 50 15.7000 119.200 2 50 15.7000 119.200 50 992 180 13 294
1948206N11129 1948 46 WP MM ROSE 1948-07-25 15:00:00 TS 16.0500 118.608 main 118 118 P________PPP__ WP071948 16.0473 118.605 50 0 16.0473 118.605 TC 50 16.0582 118.616 2 52 16.0473 118.605 50 991 180 13 307
1948206N11129 1948 46 WP MM ROSE 1948-07-25 18:00:00 TS 16.4986 118.100 main 179 179 O________OPO__ jtwc_wp WP071948 16.5000 118.100 50 0 16.5000 118.100 TC 50 16.4944 118.101 2 55 16.5000 118.100 50 990 180 13 315
1948206N11129 1948 46 WP MM ROSE 1948-07-25 21:00:00 TS 16.9733 117.639 main 247 247 P________PPP__ WP071948 16.9700 117.633 55 0 16.9700 117.633 TC 55 16.9835 117.660 2 57 16.9700 117.633 55 988 180 13 323
1948206N11129 1948 46 WP MM ROSE 1948-07-26 00:00:00 TS 17.5000 117.300 main 298 298 O________OOO__ jtwc_wp WP071948 17.5000 117.300 60 0 17.5000 117.300 TC 60 17.5000 117.300 2 60 17.5000 117.300 60 986 180 12 337
1948206N11129 1948 46 WP MM ROSE 1948-07-26 03:00:00 TS 18.0851 117.149 main 343 343 P________PPP__ WP071948 18.1073 117.184 62 0 18.1073 117.184 TC 62 18.0188 117.044 2 58 18.1073 117.184 62 984 210 12 348
1948206N11129 1948 46 WP MM ROSE 1948-07-26 06:00:00 TS 18.6641 117.040 main 369 369 O________OPO__ jtwc_wp WP071948 18.7000 117.100 65 1 18.7000 117.100 TC 65 18.5563 116.860 2 57 18.7000 117.100 65 983 240 11 343
1948206N11129 1948 46 WP MM ROSE 1948-07-26 09:00:00 TS 19.1633 116.808 main 404 354 P________PPP__ WP071948 19.1875 116.845 60 0 19.1875 116.845 TC 60 19.0907 116.697 2 56 19.1875 116.845 60 985 240 11 331
1948206N11129 1948 46 WP MM ROSE 1948-07-26 12:00:00 TS 19.6000 116.500 main 354 303 O________OOO__ jtwc_wp WP071948 19.6000 116.500 55 0 19.6000 116.500 TC 55 19.6000 116.500 2 55 19.6000 116.500 55 987 240 10 321
1948206N11129 1948 46 WP MM ROSE 1948-07-26 15:00:00 TS 19.9705 116.115 main 303 259 P________PPP__ WP071948 19.9426 116.100 52 0 19.9426 116.100 TC 52 20.0542 116.161 2 52 19.9426 116.100 52 989 210 10 316
1948206N11129 1948 46 WP MM ROSE 1948-07-26 18:00:00 TS 20.3452 115.721 main 259 196 O________OPO__ jtwc_wp WP071948 20.3000 115.700 50 0 20.3000 115.700 TC 50 20.4807 115.786 2 50 20.3000 115.700 50 991 180 11 321
1948206N11129 1948 46 WP MM ROSE 1948-07-26 21:00:00 TS 20.8117 115.376 main 196 135 P________PPP__ WP071948 20.7850 115.363 47 0 20.7850 115.363 TC 47 20.8918 115.417 2 47 20.7850 115.363 47 992 180 11 329
1948206N11129 1948 46 WP MM ROSE 1948-07-27 00:00:00 TS 21.3000 115.100 main 135 89 O________OOO__ jtwc_wp WP071948 21.3000 115.100 45 0 21.3000 115.100 TC 45 21.3000 115.100 2 45 21.3000 115.100 45 994 180 10 336
1948206N11129 1948 46 WP MM ROSE 1948-07-27 03:00:00 TS 21.7598 114.927 main 78 35 P________PPP__ WP071948 21.7649 114.927 42 0 21.7649 114.927 TC 42 21.7445 114.928 2 43 21.7649 114.927 42 994 210 9 343
1948206N11129 1948 46 WP MM ROSE 1948-07-27 06:00:00 TS 22.1966 114.801 main 35 0 O________OPO__ jtwc_wp WP071948 22.2000 114.800 40 0 22.2000 114.800 TC 40 22.1864 114.805 2 42 22.2000 114.800 40 995 240 9 345
1948206N11129 1948 46 WP MM ROSE 1948-07-27 09:00:00 TS 22.6137 114.680 main 0 0 P________PPP__ WP071948 22.6149 114.680 40 0 22.6149 114.680 TC 40 22.6101 114.681 2 41 22.6149 114.680 40 996 210 9 341
1948206N11129 1948 46 WP MM ROSE 1948-07-27 12:00:00 TS 23.0000 114.500 main 0 0 O________OOO__ jtwc_wp WP071948 23.0000 114.500 40 0 23.0000 114.500 TC 40 23.0000 114.500 2 40 23.0000 114.500 40 997 180 9 329
1948206N11129 1948 46 WP MM ROSE 1948-07-27 15:00:00 TS 23.3656 114.196 main 0 0 P________PPP__ WP071948 23.3725 114.188 35 0 23.3725 114.188 TC 35 23.3448 114.223 2 36 23.3725 114.188 35 997 180 9 318
1948206N11129 1948 46 WP MM ROSE 1948-07-27 18:00:00 TS 23.6879 113.816 main 0 0 O________OPO__ jtwc_wp WP071948 23.7000 113.800 30 -1 23.7000 113.800 TC 30 23.6517 113.862 2 32 23.7000 113.800 30 998 180 9 310
1948206N11129 1948 46 WP MM ROSE 1948-07-27 21:00:00 TS 23.9589 113.412 main 0 0 P________PPP__ WP071948 23.9677 113.400 27 -1 23.9677 113.400 TC 27 23.9327 113.446 2 28 23.9677 113.400 27 999 150 9 304
1948206N11129 1948 46 WP MM ROSE 1948-07-28 00:00:00 TS 24.2000 113.000 main 0 O________OOO__ jtwc_wp WP071948 24.2000 113.000 25 -1 24.2000 113.000 TC 25 24.2000 113.000 1 25 24.2000 113.000 25 1000 120 9 303

Digital Typhoon Data and Search

About IBTrACS Database

This database is a web-friendly format of International Best Track Archive for Climate Stewardship (IBTrACS), a global best track data archive curated by NOAA dating back to 1842.

Updated: 2021-11-26